sensor_id;sensor_type;location;lat;lon;timestamp;P1;durP1;ratioP1;P2;durP2;ratioP2
68108;SDS011;54893;49.864;19.084;2024-01-06T00:03:14;124.20;;;34.00;;
68108;SDS011;54893;49.864;19.084;2024-01-06T00:08:14;105.00;;;31.20;;
68108;SDS011;54893;49.864;19.084;2024-01-06T00:13:15;122.73;;;35.67;;
68108;SDS011;54893;49.864;19.084;2024-01-06T00:18:15;121.77;;;32.70;;
68108;SDS011;54893;49.864;19.084;2024-01-06T00:23:15;122.60;;;35.00;;
68108;SDS011;54893;49.864;19.084;2024-01-06T00:28:16;142.40;;;39.73;;
68108;SDS011;54893;49.864;19.084;2024-01-06T00:33:16;135.47;;;40.47;;
68108;SDS011;54893;49.864;19.084;2024-01-06T00:38:16;119.40;;;38.07;;
68108;SDS011;54893;49.864;19.084;2024-01-06T00:43:17;146.83;;;44.77;;
68108;SDS011;54893;49.864;19.084;2024-01-06T00:48:17;131.53;;;41.43;;
68108;SDS011;54893;49.864;19.084;2024-01-06T00:53:18;128.43;;;41.70;;
68108;SDS011;54893;49.864;19.084;2024-01-06T00:58:18;126.13;;;41.03;;
68108;SDS011;54893;49.864;19.084;2024-01-06T01:03:19;131.07;;;40.47;;
68108;SDS011;54893;49.864;19.084;2024-01-06T01:08:19;130.17;;;41.50;;
68108;SDS011;54893;49.864;19.084;2024-01-06T01:13:19;135.23;;;41.27;;
68108;SDS011;54893;49.864;19.084;2024-01-06T01:18:20;127.67;;;39.23;;
68108;SDS011;54893;49.864;19.084;2024-01-06T01:23:20;137.30;;;44.63;;
68108;SDS011;54893;49.864;19.084;2024-01-06T01:28:20;137.87;;;45.03;;
68108;SDS011;54893;49.864;19.084;2024-01-06T01:33:21;141.20;;;46.93;;
68108;SDS011;54893;49.864;19.084;2024-01-06T01:38:21;148.87;;;48.60;;
68108;SDS011;54893;49.864;19.084;2024-01-06T01:43:21;137.87;;;42.77;;
68108;SDS011;54893;49.864;19.084;2024-01-06T01:48:23;123.37;;;39.40;;
68108;SDS011;54893;49.864;19.084;2024-01-06T01:53:25;144.07;;;42.40;;
68108;SDS011;54893;49.864;19.084;2024-01-06T01:58:26;137.23;;;42.67;;
68108;SDS011;54893;49.864;19.084;2024-01-06T02:03:27;136.90;;;41.10;;
68108;SDS011;54893;49.864;19.084;2024-01-06T02:08:30;139.93;;;41.08;;
68108;SDS011;54893;49.864;19.084;2024-01-06T02:13:34;125.33;;;37.77;;
68108;SDS011;54893;49.864;19.084;2024-01-06T02:18:37;131.18;;;38.20;;
68108;SDS011;54893;49.864;19.084;2024-01-06T02:23:38;149.53;;;41.27;;
68108;SDS011;54893;49.864;19.084;2024-01-06T02:28:38;124.47;;;37.53;;
68108;SDS011;54893;49.864;19.084;2024-01-06T02:33:38;122.17;;;35.10;;
68108;SDS011;54893;49.864;19.084;2024-01-06T02:38:39;129.43;;;37.47;;
68108;SDS011;54893;49.864;19.084;2024-01-06T02:43:39;108.03;;;32.27;;
68108;SDS011;54893;49.864;19.084;2024-01-06T02:48:39;125.27;;;34.63;;
68108;SDS011;54893;49.864;19.084;2024-01-06T02:53:40;134.90;;;37.13;;
68108;SDS011;54893;49.864;19.084;2024-01-06T02:58:40;141.57;;;36.83;;
68108;SDS011;54893;49.864;19.084;2024-01-06T03:03:40;136.43;;;34.77;;
68108;SDS011;54893;49.864;19.084;2024-01-06T03:08:41;138.73;;;33.17;;
68108;SDS011;54893;49.864;19.084;2024-01-06T03:13:41;131.77;;;33.23;;
68108;SDS011;54893;49.864;19.084;2024-01-06T03:18:42;140.23;;;35.00;;
68108;SDS011;54893;49.864;19.084;2024-01-06T03:23:42;138.27;;;34.70;;
68108;SDS011;54893;49.864;19.084;2024-01-06T03:28:42;144.20;;;34.33;;
68108;SDS011;54893;49.864;19.084;2024-01-06T03:33:43;130.03;;;34.30;;
68108;SDS011;54893;49.864;19.084;2024-01-06T03:38:44;136.55;;;35.08;;
68108;SDS011;54893;49.864;19.084;2024-01-06T03:43:44;141.50;;;36.83;;
68108;SDS011;54893;49.864;19.084;2024-01-06T03:48:44;130.23;;;35.07;;
68108;SDS011;54893;49.864;19.084;2024-01-06T03:53:45;118.00;;;32.13;;
68108;SDS011;54893;49.864;19.084;2024-01-06T03:58:46;136.27;;;36.80;;
68108;SDS011;54893;49.864;19.084;2024-01-06T04:03:47;109.75;;;31.05;;
68108;SDS011;54893;49.864;19.084;2024-01-06T04:08:47;122.37;;;36.63;;
68108;SDS011;54893;49.864;19.084;2024-01-06T04:13:47;131.40;;;36.70;;
68108;SDS011;54893;49.864;19.084;2024-01-06T04:18:48;117.57;;;34.07;;
68108;SDS011;54893;49.864;19.084;2024-01-06T04:23:48;123.07;;;36.63;;
68108;SDS011;54893;49.864;19.084;2024-01-06T04:28:48;120.30;;;36.00;;
68108;SDS011;54893;49.864;19.084;2024-01-06T04:33:49;123.77;;;40.00;;
68108;SDS011;54893;49.864;19.084;2024-01-06T04:38:49;131.67;;;40.00;;
68108;SDS011;54893;49.864;19.084;2024-01-06T04:43:49;138.07;;;44.07;;
68108;SDS011;54893;49.864;19.084;2024-01-06T04:48:50;127.17;;;40.80;;
68108;SDS011;54893;49.864;19.084;2024-01-06T04:53:50;120.97;;;35.47;;
68108;SDS011;54893;49.864;19.084;2024-01-06T04:58:51;122.13;;;36.13;;
68108;SDS011;54893;49.864;19.084;2024-01-06T05:03:51;118.80;;;38.03;;
68108;SDS011;54893;49.864;19.084;2024-01-06T05:08:51;120.67;;;39.20;;
68108;SDS011;54893;49.864;19.084;2024-01-06T05:13:52;116.43;;;35.20;;
68108;SDS011;54893;49.864;19.084;2024-01-06T05:18:52;149.63;;;48.77;;
68108;SDS011;54893;49.864;19.084;2024-01-06T05:23:52;148.60;;;45.43;;
68108;SDS011;54893;49.864;19.084;2024-01-06T05:28:53;128.60;;;40.33;;
68108;SDS011;54893;49.864;19.084;2024-01-06T05:33:53;122.03;;;36.80;;
68108;SDS011;54893;49.864;19.084;2024-01-06T05:38:53;131.17;;;40.13;;
68108;SDS011;54893;49.864;19.084;2024-01-06T05:43:54;131.67;;;38.90;;
68108;SDS011;54893;49.864;19.084;2024-01-06T05:48:54;133.53;;;42.63;;
68108;SDS011;54893;49.864;19.084;2024-01-06T05:53:56;119.65;;;38.70;;
68108;SDS011;54893;49.864;19.084;2024-01-06T05:58:56;124.50;;;38.90;;
68108;SDS011;54893;49.864;19.084;2024-01-06T06:03:56;127.07;;;38.93;;
68108;SDS011;54893;49.864;19.084;2024-01-06T06:08:57;138.00;;;41.33;;
68108;SDS011;54893;49.864;19.084;2024-01-06T06:13:57;120.37;;;38.47;;
68108;SDS011;54893;49.864;19.084;2024-01-06T06:18:57;117.43;;;39.00;;
68108;SDS011;54893;49.864;19.084;2024-01-06T06:23:58;125.17;;;41.73;;
68108;SDS011;54893;49.864;19.084;2024-01-06T06:28:58;146.57;;;48.10;;
68108;SDS011;54893;49.864;19.084;2024-01-06T06:33:59;141.33;;;45.80;;
68108;SDS011;54893;49.864;19.084;2024-01-06T06:38:59;146.07;;;48.30;;
68108;SDS011;54893;49.864;19.084;2024-01-06T06:43:59;149.37;;;45.20;;
68108;SDS011;54893;49.864;19.084;2024-01-06T06:49:00;134.97;;;43.67;;
68108;SDS011;54893;49.864;19.084;2024-01-06T06:54:00;134.30;;;43.00;;
68108;SDS011;54893;49.864;19.084;2024-01-06T06:59:00;128.33;;;42.73;;
68108;SDS011;54893;49.864;19.084;2024-01-06T07:04:02;118.88;;;41.95;;
68108;SDS011;54893;49.864;19.084;2024-01-06T07:09:02;126.33;;;42.47;;
68108;SDS011;54893;49.864;19.084;2024-01-06T07:14:04;139.02;;;45.10;;
68108;SDS011;54893;49.864;19.084;2024-01-06T07:19:05;135.93;;;44.50;;
68108;SDS011;54893;49.864;19.084;2024-01-06T07:24:05;134.63;;;45.13;;
68108;SDS011;54893;49.864;19.084;2024-01-06T07:29:06;143.37;;;46.67;;
68108;SDS011;54893;49.864;19.084;2024-01-06T07:34:08;146.07;;;52.20;;
68108;SDS011;54893;49.864;19.084;2024-01-06T07:39:08;161.07;;;52.30;;
68108;SDS011;54893;49.864;19.084;2024-01-06T07:44:09;152.50;;;51.67;;
68108;SDS011;54893;49.864;19.084;2024-01-06T07:49:09;142.57;;;48.47;;
68108;SDS011;54893;49.864;19.084;2024-01-06T07:54:10;139.87;;;48.90;;
68108;SDS011;54893;49.864;19.084;2024-01-06T07:59:11;153.52;;;52.17;;
68108;SDS011;54893;49.864;19.084;2024-01-06T08:04:12;158.80;;;54.97;;
68108;SDS011;54893;49.864;19.084;2024-01-06T08:09:33;215.75;;;71.20;;
68108;SDS011;54893;49.864;19.084;2024-01-06T08:14:34;163.57;;;51.10;;
68108;SDS011;54893;49.864;19.084;2024-01-06T08:19:34;147.57;;;50.27;;
68108;SDS011;54893;49.864;19.084;2024-01-06T08:24:35;157.87;;;50.97;;
68108;SDS011;54893;49.864;19.084;2024-01-06T08:29:36;189.50;;;64.60;;
68108;SDS011;54893;49.864;19.084;2024-01-06T08:34:36;237.97;;;73.27;;
68108;SDS011;54893;49.864;19.084;2024-01-06T08:39:37;287.97;;;94.90;;
68108;SDS011;54893;49.864;19.084;2024-01-06T08:44:39;217.70;;;80.65;;
68108;SDS011;54893;49.864;19.084;2024-01-06T08:49:39;173.80;;;56.90;;
68108;SDS011;54893;49.864;19.084;2024-01-06T08:54:39;322.23;;;89.43;;
68108;SDS011;54893;49.864;19.084;2024-01-06T08:59:40;172.77;;;56.20;;
68108;SDS011;54893;49.864;19.084;2024-01-06T09:04:40;148.57;;;47.57;;
68108;SDS011;54893;49.864;19.084;2024-01-06T09:09:41;147.60;;;49.53;;
68108;SDS011;54893;49.864;19.084;2024-01-06T09:14:41;172.37;;;57.77;;
68108;SDS011;54893;49.864;19.084;2024-01-06T09:19:41;170.13;;;57.63;;
68108;SDS011;54893;49.864;19.084;2024-01-06T09:24:42;158.13;;;54.43;;
68108;SDS011;54893;49.864;19.084;2024-01-06T09:29:42;204.20;;;65.07;;
68108;SDS011;54893;49.864;19.084;2024-01-06T09:34:43;178.20;;;61.77;;
68108;SDS011;54893;49.864;19.084;2024-01-06T09:39:43;215.83;;;73.70;;
68108;SDS011;54893;49.864;19.084;2024-01-06T09:44:44;149.50;;;51.10;;
68108;SDS011;54893;49.864;19.084;2024-01-06T09:49:50;138.50;;;49.73;;
68108;SDS011;54893;49.864;19.084;2024-01-06T09:54:52;154.57;;;53.72;;
68108;SDS011;54893;49.864;19.084;2024-01-06T09:59:53;176.52;;;58.70;;
68108;SDS011;54893;49.864;19.084;2024-01-06T10:04:55;179.20;;;60.35;;
68108;SDS011;54893;49.864;19.084;2024-01-06T10:09:56;343.40;;;107.83;;
68108;SDS011;54893;49.864;19.084;2024-01-06T10:14:56;155.80;;;55.30;;
68108;SDS011;54893;49.864;19.084;2024-01-06T10:19:57;187.03;;;65.83;;
68108;SDS011;54893;49.864;19.084;2024-01-06T10:24:57;154.20;;;51.40;;
68108;SDS011;54893;49.864;19.084;2024-01-06T10:29:57;122.87;;;43.13;;
68108;SDS011;54893;49.864;19.084;2024-01-06T10:34:58;163.47;;;56.03;;
68108;SDS011;54893;49.864;19.084;2024-01-06T10:40:07;199.32;;;67.70;;
68108;SDS011;54893;49.864;19.084;2024-01-06T10:45:10;166.17;;;59.40;;
68108;SDS011;54893;49.864;19.084;2024-01-06T10:50:11;138.98;;;48.65;;
68108;SDS011;54893;49.864;19.084;2024-01-06T10:55:15;125.00;;;44.47;;
68108;SDS011;54893;49.864;19.084;2024-01-06T11:00:17;143.43;;;53.75;;
68108;SDS011;54893;49.864;19.084;2024-01-06T11:05:18;123.40;;;44.73;;
68108;SDS011;54893;49.864;19.084;2024-01-06T11:10:19;120.50;;;44.88;;
68108;SDS011;54893;49.864;19.084;2024-01-06T11:15:39;131.68;;;51.00;;
68108;SDS011;54893;49.864;19.084;2024-01-06T11:21:26;107.37;;;39.13;;
68108;SDS011;54893;49.864;19.084;2024-01-06T11:26:24;110.10;;;37.28;;
68108;SDS011;54893;49.864;19.084;2024-01-06T11:31:28;114.90;;;41.03;;
68108;SDS011;54893;49.864;19.084;2024-01-06T11:36:30;103.50;;;37.72;;
68108;SDS011;54893;49.864;19.084;2024-01-06T11:46:51;103.00;;;33.65;;
68108;SDS011;54893;49.864;19.084;2024-01-06T11:51:53;94.83;;;32.90;;
68108;SDS011;54893;49.864;19.084;2024-01-06T11:56:53;92.33;;;33.70;;
68108;SDS011;54893;49.864;19.084;2024-01-06T12:01:56;118.93;;;41.92;;
68108;SDS011;54893;49.864;19.084;2024-01-06T12:07:06;174.00;;;49.83;;
68108;SDS011;54893;49.864;19.084;2024-01-06T12:12:08;121.22;;;39.42;;
68108;SDS011;54893;49.864;19.084;2024-01-06T12:17:34;102.93;;;34.35;;
68108;SDS011;54893;49.864;19.084;2024-01-06T12:22:39;101.00;;;33.33;;
68108;SDS011;54893;49.864;19.084;2024-01-06T12:27:44;94.03;;;33.30;;
68108;SDS011;54893;49.864;19.084;2024-01-06T12:32:47;96.55;;;33.75;;
68108;SDS011;54893;49.864;19.084;2024-01-06T12:38:27;92.35;;;32.38;;
68108;SDS011;54893;49.864;19.084;2024-01-06T12:43:29;81.30;;;29.30;;
68108;SDS011;54893;49.864;19.084;2024-01-06T12:48:31;80.77;;;29.57;;
68108;SDS011;54893;49.864;19.084;2024-01-06T12:53:32;79.10;;;28.45;;
68108;SDS011;54893;49.864;19.084;2024-01-06T12:58:32;112.13;;;45.10;;
68108;SDS011;54893;49.864;19.084;2024-01-06T13:03:34;103.77;;;39.90;;
68108;SDS011;54893;49.864;19.084;2024-01-06T13:08:34;123.77;;;50.30;;
68108;SDS011;54893;49.864;19.084;2024-01-06T13:13:34;98.77;;;37.47;;
68108;SDS011;54893;49.864;19.084;2024-01-06T13:18:35;96.33;;;36.93;;
68108;SDS011;54893;49.864;19.084;2024-01-06T13:23:35;112.70;;;41.33;;
68108;SDS011;54893;49.864;19.084;2024-01-06T13:28:36;172.93;;;68.90;;
68108;SDS011;54893;49.864;19.084;2024-01-06T13:33:37;102.20;;;34.70;;
68108;SDS011;54893;49.864;19.084;2024-01-06T13:38:38;73.80;;;28.13;;
68108;SDS011;54893;49.864;19.084;2024-01-06T13:43:38;88.18;;;30.13;;
68108;SDS011;54893;49.864;19.084;2024-01-06T13:48:39;80.50;;;28.83;;
68108;SDS011;54893;49.864;19.084;2024-01-06T13:53:41;79.22;;;28.15;;
68108;SDS011;54893;49.864;19.084;2024-01-06T13:58:42;83.68;;;29.35;;
68108;SDS011;54893;49.864;19.084;2024-01-06T14:03:42;78.27;;;29.60;;
68108;SDS011;54893;49.864;19.084;2024-01-06T14:08:43;75.63;;;28.33;;
68108;SDS011;54893;49.864;19.084;2024-01-06T14:13:43;75.70;;;26.50;;
68108;SDS011;54893;49.864;19.084;2024-01-06T14:18:48;84.75;;;28.77;;
68108;SDS011;54893;49.864;19.084;2024-01-06T14:23:49;81.87;;;28.83;;
68108;SDS011;54893;49.864;19.084;2024-01-06T14:28:49;96.00;;;33.23;;
68108;SDS011;54893;49.864;19.084;2024-01-06T14:33:50;94.90;;;34.17;;
68108;SDS011;54893;49.864;19.084;2024-01-06T14:38:50;87.53;;;30.17;;
68108;SDS011;54893;49.864;19.084;2024-01-06T14:43:52;94.72;;;33.55;;
68108;SDS011;54893;49.864;19.084;2024-01-06T14:48:52;94.83;;;31.30;;
68108;SDS011;54893;49.864;19.084;2024-01-06T14:53:55;89.85;;;33.20;;
68108;SDS011;54893;49.864;19.084;2024-01-06T14:58:57;91.30;;;33.87;;
68108;SDS011;54893;49.864;19.084;2024-01-06T15:03:57;83.73;;;27.80;;
68108;SDS011;54893;49.864;19.084;2024-01-06T15:08:57;69.03;;;25.37;;
68108;SDS011;54893;49.864;19.084;2024-01-06T15:14:01;52.23;;;21.00;;
68108;SDS011;54893;49.864;19.084;2024-01-06T15:19:08;54.78;;;21.73;;
68108;SDS011;54893;49.864;19.084;2024-01-06T15:24:09;57.27;;;21.73;;
68108;SDS011;54893;49.864;19.084;2024-01-06T15:29:09;49.83;;;18.23;;
68108;SDS011;54893;49.864;19.084;2024-01-06T15:34:10;52.50;;;19.13;;
68108;SDS011;54893;49.864;19.084;2024-01-06T15:39:10;62.60;;;22.87;;
68108;SDS011;54893;49.864;19.084;2024-01-06T15:44:11;54.03;;;19.73;;
68108;SDS011;54893;49.864;19.084;2024-01-06T15:49:11;53.20;;;18.30;;
68108;SDS011;54893;49.864;19.084;2024-01-06T15:54:11;35.73;;;13.60;;
68108;SDS011;54893;49.864;19.084;2024-01-06T15:59:12;54.80;;;21.20;;
68108;SDS011;54893;49.864;19.084;2024-01-06T16:04:12;45.13;;;18.17;;
68108;SDS011;54893;49.864;19.084;2024-01-06T16:09:13;47.50;;;17.90;;
68108;SDS011;54893;49.864;19.084;2024-01-06T16:14:13;50.10;;;17.80;;
68108;SDS011;54893;49.864;19.084;2024-01-06T16:19:13;49.53;;;17.87;;
68108;SDS011;54893;49.864;19.084;2024-01-06T16:24:14;53.20;;;21.17;;
68108;SDS011;54893;49.864;19.084;2024-01-06T16:29:14;80.50;;;29.40;;
68108;SDS011;54893;49.864;19.084;2024-01-06T16:34:15;179.17;;;73.57;;
68108;SDS011;54893;49.864;19.084;2024-01-06T16:39:15;462.27;;;154.47;;
68108;SDS011;54893;49.864;19.084;2024-01-06T16:44:15;608.27;;;240.90;;
68108;SDS011;54893;49.864;19.084;2024-01-06T16:49:16;288.67;;;75.70;;
68108;SDS011;54893;49.864;19.084;2024-01-06T16:54:16;184.80;;;46.93;;
68108;SDS011;54893;49.864;19.084;2024-01-06T16:59:18;249.88;;;64.90;;
68108;SDS011;54893;49.864;19.084;2024-01-06T17:04:18;349.50;;;94.73;;
68108;SDS011;54893;49.864;19.084;2024-01-06T17:09:18;246.23;;;61.10;;
68108;SDS011;54893;49.864;19.084;2024-01-06T17:14:19;374.47;;;97.70;;
68108;SDS011;54893;49.864;19.084;2024-01-06T17:19:19;293.53;;;74.33;;
68108;SDS011;54893;49.864;19.084;2024-01-06T17:24:20;395.37;;;111.67;;
68108;SDS011;54893;49.864;19.084;2024-01-06T17:29:20;384.13;;;106.07;;
68108;SDS011;54893;49.864;19.084;2024-01-06T17:34:21;264.07;;;69.00;;
68108;SDS011;54893;49.864;19.084;2024-01-06T17:39:21;146.33;;;42.83;;
68108;SDS011;54893;49.864;19.084;2024-01-06T17:44:21;240.03;;;66.03;;
68108;SDS011;54893;49.864;19.084;2024-01-06T17:49:22;145.63;;;44.17;;
68108;SDS011;54893;49.864;19.084;2024-01-06T17:54:22;274.10;;;86.20;;
68108;SDS011;54893;49.864;19.084;2024-01-06T17:59:22;114.57;;;32.27;;
68108;SDS011;54893;49.864;19.084;2024-01-06T18:04:23;102.17;;;32.80;;
68108;SDS011;54893;49.864;19.084;2024-01-06T18:09:23;130.20;;;41.73;;
68108;SDS011;54893;49.864;19.084;2024-01-06T18:14:23;105.97;;;33.23;;
68108;SDS011;54893;49.864;19.084;2024-01-06T18:19:24;128.50;;;39.57;;
68108;SDS011;54893;49.864;19.084;2024-01-06T18:24:24;140.20;;;43.00;;
68108;SDS011;54893;49.864;19.084;2024-01-06T18:29:25;190.98;;;50.20;;
68108;SDS011;54893;49.864;19.084;2024-01-06T18:34:26;181.07;;;45.27;;
68108;SDS011;54893;49.864;19.084;2024-01-06T18:39:26;102.73;;;30.03;;
68108;SDS011;54893;49.864;19.084;2024-01-06T18:44:27;70.03;;;23.70;;
68108;SDS011;54893;49.864;19.084;2024-01-06T18:49:27;65.13;;;22.33;;
68108;SDS011;54893;49.864;19.084;2024-01-06T18:54:28;62.17;;;23.50;;
68108;SDS011;54893;49.864;19.084;2024-01-06T18:59:29;48.30;;;19.33;;
68108;SDS011;54893;49.864;19.084;2024-01-06T19:04:29;43.77;;;17.80;;
68108;SDS011;54893;49.864;19.084;2024-01-06T19:09:30;54.70;;;19.77;;
68108;SDS011;54893;49.864;19.084;2024-01-06T19:14:30;42.70;;;17.03;;
68108;SDS011;54893;49.864;19.084;2024-01-06T19:19:33;56.27;;;22.67;;
68108;SDS011;54893;49.864;19.084;2024-01-06T19:24:39;75.38;;;27.05;;
68108;SDS011;54893;49.864;19.084;2024-01-06T19:29:41;75.40;;;27.92;;
68108;SDS011;54893;49.864;19.084;2024-01-06T19:34:42;208.00;;;72.47;;
68108;SDS011;54893;49.864;19.084;2024-01-06T19:39:43;95.73;;;33.63;;
68108;SDS011;54893;49.864;19.084;2024-01-06T19:44:43;84.47;;;28.37;;
68108;SDS011;54893;49.864;19.084;2024-01-06T19:49:44;67.97;;;24.47;;
68108;SDS011;54893;49.864;19.084;2024-01-06T19:54:44;67.50;;;25.57;;
68108;SDS011;54893;49.864;19.084;2024-01-06T19:59:44;41.03;;;17.57;;
68108;SDS011;54893;49.864;19.084;2024-01-06T20:04:47;32.25;;;12.68;;
68108;SDS011;54893;49.864;19.084;2024-01-06T20:09:47;50.67;;;17.50;;
68108;SDS011;54893;49.864;19.084;2024-01-06T20:14:48;30.70;;;12.90;;
68108;SDS011;54893;49.864;19.084;2024-01-06T20:19:48;33.37;;;14.13;;
68108;SDS011;54893;49.864;19.084;2024-01-06T20:24:48;25.77;;;10.17;;
68108;SDS011;54893;49.864;19.084;2024-01-06T20:29:49;23.80;;;11.40;;
68108;SDS011;54893;49.864;19.084;2024-01-06T20:34:52;109.30;;;30.73;;
68108;SDS011;54893;49.864;19.084;2024-01-06T20:39:52;31.97;;;10.33;;
68108;SDS011;54893;49.864;19.084;2024-01-06T20:44:54;90.63;;;26.25;;
68108;SDS011;54893;49.864;19.084;2024-01-06T20:49:54;189.33;;;51.13;;
68108;SDS011;54893;49.864;19.084;2024-01-06T20:54:55;189.10;;;56.77;;
68108;SDS011;54893;49.864;19.084;2024-01-06T20:59:55;111.73;;;32.30;;
68108;SDS011;54893;49.864;19.084;2024-01-06T21:04:57;99.75;;;28.20;;
68108;SDS011;54893;49.864;19.084;2024-01-06T21:10:04;69.10;;;17.97;;
68108;SDS011;54893;49.864;19.084;2024-01-06T21:15:05;62.75;;;17.27;;
68108;SDS011;54893;49.864;19.084;2024-01-06T21:20:05;117.77;;;29.77;;
68108;SDS011;54893;49.864;19.084;2024-01-06T21:25:08;66.00;;;16.97;;
68108;SDS011;54893;49.864;19.084;2024-01-06T21:30:09;123.93;;;29.05;;
68108;SDS011;54893;49.864;19.084;2024-01-06T21:35:09;34.53;;;10.63;;
68108;SDS011;54893;49.864;19.084;2024-01-06T21:40:10;151.57;;;41.63;;
68108;SDS011;54893;49.864;19.084;2024-01-06T21:45:11;203.67;;;54.37;;
68108;SDS011;54893;49.864;19.084;2024-01-06T21:50:12;226.93;;;58.83;;
68108;SDS011;54893;49.864;19.084;2024-01-06T21:55:14;131.88;;;39.47;;
68108;SDS011;54893;49.864;19.084;2024-01-06T22:00:14;110.60;;;32.37;;
68108;SDS011;54893;49.864;19.084;2024-01-06T22:05:16;114.55;;;33.03;;
68108;SDS011;54893;49.864;19.084;2024-01-06T22:10:17;72.60;;;19.80;;
68108;SDS011;54893;49.864;19.084;2024-01-06T22:15:17;52.63;;;15.87;;
68108;SDS011;54893;49.864;19.084;2024-01-06T22:20:18;129.23;;;38.37;;
68108;SDS011;54893;49.864;19.084;2024-01-06T22:25:20;92.70;;;27.23;;
68108;SDS011;54893;49.864;19.084;2024-01-06T22:30:21;46.20;;;14.63;;
68108;SDS011;54893;49.864;19.084;2024-01-06T22:35:21;96.90;;;26.83;;
68108;SDS011;54893;49.864;19.084;2024-01-06T22:40:21;85.87;;;25.87;;
68108;SDS011;54893;49.864;19.084;2024-01-06T22:45:22;60.40;;;20.07;;
68108;SDS011;54893;49.864;19.084;2024-01-06T22:50:24;34.78;;;10.82;;
68108;SDS011;54893;49.864;19.084;2024-01-06T22:55:25;46.70;;;13.93;;
68108;SDS011;54893;49.864;19.084;2024-01-06T23:00:26;88.33;;;23.87;;
68108;SDS011;54893;49.864;19.084;2024-01-06T23:05:29;34.23;;;9.30;;
68108;SDS011;54893;49.864;19.084;2024-01-06T23:10:29;39.23;;;11.73;;
68108;SDS011;54893;49.864;19.084;2024-01-06T23:15:30;33.03;;;10.50;;
68108;SDS011;54893;49.864;19.084;2024-01-06T23:20:30;24.87;;;8.97;;
68108;SDS011;54893;49.864;19.084;2024-01-06T23:25:31;18.67;;;7.40;;
68108;SDS011;54893;49.864;19.084;2024-01-06T23:30:31;22.75;;;7.57;;
68108;SDS011;54893;49.864;19.084;2024-01-06T23:35:32;23.90;;;8.80;;
68108;SDS011;54893;49.864;19.084;2024-01-06T23:40:32;30.20;;;10.90;;
68108;SDS011;54893;49.864;19.084;2024-01-06T23:45:34;28.10;;;10.97;;
68108;SDS011;54893;49.864;19.084;2024-01-06T23:50:34;25.13;;;8.33;;
68108;SDS011;54893;49.864;19.084;2024-01-06T23:55:35;21.58;;;8.23;;
